ETEB/QOB METAR and TAF weather

Enter ICAO airport designator
Station Type Date Time Source
ETEB METAR 2022/06/25 21:56 UTC NOAA

ETEB 252156Z AUTO 13003KT 9999 CLR 19/14 A2995 RMK AO2 SLP139 T01890137 $


Station Type Date Time Source
ETEB Decoded METAR 2022/06/25 21:56 UTC NOAA

Ansbach / Katterbach, Germany (ETEB) 49-19N 010-38E 476M
Jun 25, 2022 - 05:56 PM EDT / 2022.06.25 2156 UTC
Wind: from the SE (130 degrees) at 3 MPH (3 KT):0
Visibility: greater than 7 mile(s):0
Sky conditions: clear
Temperature: 66.0 F (18.9 C)
Dew Point: 56.7 F (13.7 C)
Relative Humidity: 71%
Pressure (altimeter): 29.95 in. Hg (1014 hPa)
ob: ETEB 252156Z AUTO 13003KT 9999 CLR 19/14 A2995 RMK AO2 SLP139 T01890137
cycle: 22

Station Type Date Time Source
ETEB TAF 2022/06/24 19:50 UTC NOAA

TAF
AMD ETEB 241935Z 2419/2521 28010G15KT 6000 -SHRA SCT018 BKN025 BKN060 OVC100 QNH2979INS
BECMG 2421/2422 25009KT 9999 NSW FEW035 BKN065 QNH2989INS
BECMG 2511/2512 VRB06KT 9999 FEW080 QNH2994INS TX23/2513Z TN15/2503Z LAST NO
AMDS AFT 2422 NEXT 2707

Example: see airport list